createdAt,value
2019-03-18T00:00:37.261Z,998.35
2019-03-18T00:01:37.198Z,998.41
2019-03-18T00:02:37.193Z,998.46
2019-03-18T00:03:37.187Z,998.47
2019-03-18T00:04:37.321Z,998.49
2019-03-18T00:05:37.257Z,998.53
2019-03-18T00:06:37.268Z,998.54
2019-03-18T00:07:37.227Z,998.56
2019-03-18T00:08:37.187Z,998.62
2019-03-18T00:09:37.264Z,998.52
2019-03-18T00:10:37.199Z,998.58
2019-03-18T00:11:37.270Z,998.57
2019-03-18T00:12:37.269Z,998.55
2019-03-18T00:13:37.205Z,998.59
2019-03-18T00:14:37.193Z,998.60
2019-03-18T00:15:37.192Z,998.60
2019-03-18T00:16:37.260Z,998.59
2019-03-18T00:17:37.199Z,998.64
2019-03-18T00:18:37.256Z,998.68
2019-03-18T00:19:37.260Z,998.66
2019-03-18T00:20:37.187Z,998.70
2019-03-18T00:21:37.303Z,998.73
2019-03-18T00:22:37.194Z,998.73
2019-03-18T00:23:37.267Z,998.76
2019-03-18T00:24:37.261Z,998.78
2019-03-18T00:25:37.269Z,998.69
2019-03-18T00:26:37.193Z,998.74
2019-03-18T00:27:37.267Z,998.70
2019-03-18T00:28:37.267Z,998.69
2019-03-18T00:29:37.210Z,998.69
2019-03-18T00:30:37.265Z,998.69
2019-03-18T00:31:37.200Z,998.67
2019-03-18T00:32:37.200Z,998.58
2019-03-18T00:33:37.203Z,998.69
2019-03-18T00:34:37.273Z,998.68
2019-03-18T00:35:37.202Z,998.68
2019-03-18T00:36:37.198Z,998.63
2019-03-18T00:37:37.271Z,998.65
2019-03-18T00:38:37.219Z,998.66
2019-03-18T00:39:37.290Z,998.69
2019-03-18T00:40:37.287Z,998.74
2019-03-18T00:41:37.281Z,998.68
2019-03-18T00:42:37.225Z,998.69
2019-03-18T00:43:37.179Z,998.75
2019-03-18T00:44:37.295Z,998.70
2019-03-18T00:45:40.150Z,998.74
2019-03-18T00:46:37.293Z,998.75
2019-03-18T00:47:37.290Z,998.77
2019-03-18T00:48:37.226Z,998.75
2019-03-18T00:49:37.292Z,998.74
2019-03-18T00:50:37.223Z,998.78
2019-03-18T00:51:37.220Z,998.75
2019-03-18T00:52:37.291Z,998.74
2019-03-18T00:53:37.294Z,998.71
2019-03-18T00:54:37.295Z,998.72
2019-03-18T00:55:37.244Z,998.73
2019-03-18T00:56:37.295Z,998.75
2019-03-18T00:57:37.283Z,998.82
2019-03-18T00:58:37.237Z,998.80
2019-03-18T00:59:37.185Z,998.82
2019-03-18T01:00:37.193Z,998.81
2019-03-18T01:01:37.296Z,998.83
2019-03-18T01:02:37.312Z,998.85
2019-03-18T01:03:37.193Z,998.85
2019-03-18T01:04:37.299Z,998.87
2019-03-18T01:05:37.252Z,998.84
2019-03-18T01:06:37.239Z,998.92
2019-03-18T01:07:37.232Z,998.93
2019-03-18T01:08:37.302Z,998.95
2019-03-18T01:09:37.233Z,998.91
2019-03-18T01:10:37.309Z,998.88
2019-03-18T01:11:37.316Z,998.89
2019-03-18T01:12:37.305Z,998.91
2019-03-18T01:13:37.306Z,998.97
2019-03-18T01:14:37.235Z,998.95
2019-03-18T01:15:37.309Z,998.99
2019-03-18T01:16:37.321Z,998.96
2019-03-18T01:17:37.315Z,998.95
2019-03-18T01:18:37.315Z,998.98
2019-03-18T01:19:37.242Z,998.92
2019-03-18T01:20:37.252Z,998.93
2019-03-18T01:21:37.239Z,998.88
2019-03-18T01:22:37.325Z,998.92
2019-03-18T01:23:37.244Z,998.85
2019-03-18T01:24:37.246Z,998.80
2019-03-18T01:25:37.248Z,998.78
2019-03-18T01:26:37.260Z,998.80
2019-03-18T01:27:37.262Z,998.71
2019-03-18T01:28:37.324Z,998.75
2019-03-18T01:29:37.261Z,998.73
2019-03-18T01:30:37.248Z,998.69
2019-03-18T01:31:37.248Z,998.78
2019-03-18T01:32:37.327Z,998.74
2019-03-18T01:33:37.333Z,998.71
2019-03-18T01:34:37.266Z,998.77
2019-03-18T01:35:39.815Z,998.76
2019-03-18T01:36:37.264Z,998.79
2019-03-18T01:37:37.325Z,998.80
2019-03-18T01:38:37.278Z,998.80
2019-03-18T01:39:37.330Z,998.85
2019-03-18T01:40:37.256Z,998.88
2019-03-18T01:41:37.327Z,998.84
2019-03-18T01:42:37.267Z,998.88
2019-03-18T01:43:37.336Z,998.92
2019-03-18T01:44:37.333Z,998.91
2019-03-18T01:45:40.915Z,998.94
2019-03-18T01:46:37.256Z,999.00
2019-03-18T01:47:37.328Z,999.06
2019-03-18T01:48:37.337Z,999.05
2019-03-18T01:49:37.326Z,999.02
2019-03-18T01:50:37.251Z,998.99
2019-03-18T01:51:37.260Z,999.01
2019-03-18T01:52:37.249Z,998.99
2019-03-18T01:53:37.329Z,999.09
2019-03-18T01:54:37.260Z,999.07
2019-03-18T01:55:37.273Z,999.15
2019-03-18T01:56:37.326Z,999.12
2019-03-18T01:57:37.262Z,999.10
2019-03-18T01:58:37.352Z,999.13
2019-03-18T01:59:37.340Z,999.16
2019-03-18T02:00:37.350Z,999.13
2019-03-18T02:01:37.280Z,999.14
2019-03-18T02:02:37.341Z,999.11
2019-03-18T02:03:37.271Z,999.12
2019-03-18T02:04:37.272Z,999.11
2019-03-18T02:05:37.338Z,999.17
2019-03-18T02:06:37.274Z,999.14
2019-03-18T02:07:37.271Z,999.17
2019-03-18T02:08:37.276Z,999.17
2019-03-18T02:09:37.347Z,999.23
2019-03-18T02:10:37.297Z,999.14
2019-03-18T02:11:37.279Z,999.15
2019-03-18T02:12:37.276Z,999.11
2019-03-18T02:13:37.315Z,999.08
2019-03-18T02:14:37.348Z,999.13
2019-03-18T02:15:37.363Z,999.17
2019-03-18T02:16:37.358Z,999.17
2019-03-18T02:17:37.282Z,999.17
2019-03-18T02:18:37.355Z,999.24
2019-03-18T02:19:37.350Z,999.25
2019-03-18T02:20:37.294Z,999.25
2019-03-18T02:21:37.316Z,999.18
2019-03-18T02:22:37.366Z,999.19
2019-03-18T02:23:37.284Z,999.23
2019-03-18T02:24:37.356Z,999.20
2019-03-18T02:25:37.301Z,999.18
2019-03-18T02:26:37.433Z,999.09
2019-03-18T02:27:37.382Z,999.15
2019-03-18T02:28:37.366Z,999.16
2019-03-18T02:29:37.290Z,999.17
2019-03-18T02:30:37.295Z,999.23
2019-03-18T02:31:37.298Z,999.14
2019-03-18T02:32:37.355Z,999.22
2019-03-18T02:33:37.269Z,999.17
2019-03-18T02:34:37.304Z,999.06
2019-03-18T02:35:37.239Z,999.09
2019-03-18T02:36:37.352Z,999.00
2019-03-18T02:37:37.257Z,998.98
2019-03-18T02:38:37.371Z,998.96
2019-03-18T02:39:37.267Z,999.01
2019-03-18T02:40:37.309Z,998.94
2019-03-18T02:41:37.378Z,998.97
2019-03-18T02:42:37.319Z,998.95
2019-03-18T02:43:37.380Z,998.99
2019-03-18T02:44:37.337Z,999.01
2019-03-18T02:45:37.320Z,999.06
2019-03-18T02:46:37.313Z,998.93
2019-03-18T02:47:37.311Z,999.03
2019-03-18T02:48:37.338Z,998.96
2019-03-18T02:49:37.321Z,998.98
2019-03-18T02:50:37.334Z,998.94
2019-03-18T02:51:37.307Z,998.95
2019-03-18T02:52:37.378Z,999.03
2019-03-18T02:53:37.385Z,998.94
2019-03-18T02:54:37.327Z,998.98
2019-03-18T02:55:37.312Z,998.97
2019-03-18T02:56:37.383Z,998.94
2019-03-18T02:57:37.392Z,998.88
2019-03-18T02:58:37.380Z,998.93
2019-03-18T02:59:37.374Z,998.95
2019-03-18T03:00:37.326Z,998.92
2019-03-18T03:01:37.367Z,998.91
2019-03-18T03:02:37.366Z,998.90
2019-03-18T03:03:37.510Z,998.84
2019-03-18T03:04:37.363Z,998.87
2019-03-18T03:05:37.366Z,998.87
2019-03-18T03:06:37.305Z,998.94
2019-03-18T03:07:37.317Z,998.97
2019-03-18T03:08:37.306Z,998.92
2019-03-18T03:09:37.243Z,998.89
2019-03-18T03:10:37.340Z,998.87
2019-03-18T03:11:37.248Z,999.01
2019-03-18T03:12:37.296Z,998.94
2019-03-18T03:13:37.374Z,998.99
2019-03-18T03:14:37.341Z,998.94
2019-03-18T03:15:37.303Z,998.96
2019-03-18T03:16:37.259Z,998.95
2019-03-18T03:17:37.345Z,999.06
2019-03-18T03:18:37.323Z,999.01
2019-03-18T03:19:37.392Z,999.02
2019-03-18T03:20:37.323Z,999.02
2019-03-18T03:21:37.390Z,999.00
2019-03-18T03:22:37.396Z,998.95
2019-03-18T03:23:37.391Z,998.94
2019-03-18T03:24:37.321Z,998.82
2019-03-18T03:25:37.389Z,998.90
2019-03-18T03:26:37.389Z,998.85
2019-03-18T03:27:37.406Z,998.80
2019-03-18T03:28:37.395Z,998.81
2019-03-18T03:29:37.405Z,998.88
2019-03-18T03:30:37.341Z,998.85
2019-03-18T03:31:37.355Z,998.86
2019-03-18T03:32:37.373Z,998.89
2019-03-18T03:33:37.422Z,998.85
2019-03-18T03:34:37.414Z,998.90
2019-03-18T03:35:37.412Z,998.96
2019-03-18T03:36:37.389Z,998.94
2019-03-18T03:37:37.403Z,999.00
2019-03-18T03:38:37.348Z,998.99
2019-03-18T03:39:37.341Z,999.03
2019-03-18T03:40:37.412Z,998.99
2019-03-18T03:41:37.484Z,999.00
2019-03-18T03:42:37.440Z,999.00
2019-03-18T03:43:37.348Z,998.93
2019-03-18T03:44:37.342Z,998.90
2019-03-18T03:45:37.345Z,998.92
2019-03-18T03:46:43.465Z,998.93
2019-03-18T03:47:37.351Z,998.82
2019-03-18T03:48:37.364Z,998.86
2019-03-18T03:49:37.346Z,998.87
2019-03-18T03:50:37.410Z,998.93
2019-03-18T03:51:37.342Z,999.00
2019-03-18T03:52:37.345Z,998.96
2019-03-18T03:53:37.414Z,998.91
2019-03-18T03:54:37.365Z,998.88
2019-03-18T03:55:37.410Z,998.97
2019-03-18T03:56:37.354Z,999.02
2019-03-18T03:57:37.415Z,998.96
2019-03-18T03:58:37.359Z,998.94
2019-03-18T03:59:37.419Z,998.94
2019-03-18T04:00:37.294Z,998.92
2019-03-18T04:01:37.364Z,998.92
2019-03-18T04:02:37.418Z,998.99
2019-03-18T04:03:38.883Z,998.95
2019-03-18T04:04:37.372Z,998.97
2019-03-18T04:05:37.375Z,998.98
2019-03-18T04:06:37.303Z,998.92
2019-03-18T04:07:37.300Z,998.96
2019-03-18T04:08:37.310Z,998.99
2019-03-18T04:09:37.369Z,999.03
2019-03-18T04:10:37.495Z,999.03
2019-03-18T04:11:37.359Z,999.08
2019-03-18T04:12:37.446Z,999.06
2019-03-18T04:13:37.351Z,999.06
2019-03-18T04:14:37.425Z,999.08
2019-03-18T04:15:37.369Z,999.13
2019-03-18T04:16:37.432Z,999.21
2019-03-18T04:17:37.431Z,999.29
2019-03-18T04:18:37.367Z,999.23
2019-03-18T04:19:37.381Z,999.28
2019-03-18T04:20:37.455Z,999.36
2019-03-18T04:21:37.400Z,999.35
2019-03-18T04:22:37.447Z,999.33
2019-03-18T04:23:37.393Z,999.41
2019-03-18T04:24:37.443Z,999.38
2019-03-18T04:25:37.403Z,999.34
2019-03-18T04:26:37.460Z,999.44
2019-03-18T04:27:37.450Z,999.37
2019-03-18T04:28:37.381Z,999.39
2019-03-18T04:29:37.373Z,999.36
2019-03-18T04:30:37.375Z,999.41
2019-03-18T04:31:37.449Z,999.38
2019-03-18T04:32:37.478Z,999.46
2019-03-18T04:33:39.174Z,999.46
2019-03-18T04:34:37.452Z,999.47
2019-03-18T04:35:37.450Z,999.47
2019-03-18T04:36:37.453Z,999.55
2019-03-18T04:37:37.460Z,999.61
2019-03-18T04:38:37.390Z,999.65
2019-03-18T04:39:37.455Z,999.63
2019-03-18T04:40:37.441Z,999.71
2019-03-18T04:41:37.452Z,999.68
2019-03-18T04:42:37.389Z,999.73
2019-03-18T04:43:37.466Z,999.76
2019-03-18T04:44:37.383Z,999.80
2019-03-18T04:45:37.454Z,999.80
2019-03-18T04:46:37.455Z,999.74
2019-03-18T04:47:37.459Z,999.77
2019-03-18T04:48:37.395Z,999.80
2019-03-18T04:49:37.407Z,999.76
2019-03-18T04:50:37.516Z,999.84
2019-03-18T04:51:37.543Z,999.82
2019-03-18T04:52:37.485Z,999.83
2019-03-18T04:53:37.408Z,999.84
2019-03-18T04:54:37.397Z,999.89
2019-03-18T04:55:37.463Z,999.88
2019-03-18T04:56:37.465Z,999.90
2019-03-18T04:57:37.410Z,999.92
2019-03-18T04:58:37.474Z,999.91
2019-03-18T04:59:37.492Z,999.92
2019-03-18T05:00:37.398Z,999.92
2019-03-18T05:01:37.402Z,999.98
2019-03-18T05:02:37.414Z,999.91
2019-03-18T05:03:37.409Z,999.96
2019-03-18T05:04:37.474Z,999.97
2019-03-18T05:05:37.465Z,999.94
2019-03-18T05:06:37.458Z,999.95
2019-03-18T05:07:37.472Z,999.93
2019-03-18T05:08:37.444Z,999.98
2019-03-18T05:10:37.413Z,999.97
2019-03-18T05:11:37.467Z,999.91
2019-03-18T05:12:37.403Z,999.94
2019-03-18T05:13:37.503Z,999.99
2019-03-18T05:14:37.533Z,1000.01
2019-03-18T05:15:37.411Z,999.99
2019-03-18T05:16:37.403Z,999.97
2019-03-18T05:17:37.481Z,1000.00
2019-03-18T05:18:37.479Z,999.97
2019-03-18T05:19:37.422Z,1000.02
2019-03-18T05:20:37.547Z,1000.02
2019-03-18T05:21:37.502Z,1000.01
2019-03-18T05:22:37.490Z,1000.08
2019-03-18T05:23:37.413Z,1000.08
2019-03-18T05:24:37.487Z,1000.07
2019-03-18T05:25:37.489Z,1000.09
2019-03-18T05:26:37.422Z,1000.14
2019-03-18T05:27:37.417Z,1000.15
2019-03-18T05:28:37.417Z,1000.17
2019-03-18T05:29:37.419Z,1000.16
2019-03-18T05:30:37.490Z,1000.19
2019-03-18T05:31:37.496Z,1000.17
2019-03-18T05:32:37.495Z,1000.15
2019-03-18T05:33:37.496Z,1000.16
2019-03-18T05:34:37.497Z,1000.19
2019-03-18T05:35:37.438Z,1000.17
2019-03-18T05:36:37.382Z,1000.08
2019-03-18T05:37:37.502Z,1000.16
2019-03-18T05:38:37.492Z,1000.14
2019-03-18T05:39:37.495Z,1000.16
2019-03-18T05:40:37.500Z,1000.25
2019-03-18T05:41:37.496Z,1000.21
2019-03-18T05:42:37.502Z,1000.25
2019-03-18T05:43:37.506Z,1000.26
2019-03-18T05:44:37.503Z,1000.25
2019-03-18T05:45:37.431Z,1000.27
2019-03-18T05:46:37.497Z,1000.26
2019-03-18T05:47:39.591Z,1000.36
2019-03-18T05:48:37.446Z,1000.42
2019-03-18T05:49:37.508Z,1000.39
2019-03-18T05:50:37.433Z,1000.41
2019-03-18T05:51:37.435Z,1000.37
2019-03-18T05:52:37.455Z,1000.38
2019-03-18T05:53:37.459Z,1000.34
2019-03-18T05:54:37.453Z,1000.41
2019-03-18T05:55:37.437Z,1000.47
2019-03-18T05:56:37.437Z,1000.40
2019-03-18T05:57:37.436Z,1000.47
2019-03-18T05:58:37.506Z,1000.50
2019-03-18T05:59:37.425Z,1000.52
2019-03-18T06:00:37.496Z,1000.59
2019-03-18T06:01:37.499Z,1000.57
2019-03-18T06:02:37.488Z,1000.58
2019-03-18T06:03:37.493Z,1000.57
2019-03-18T06:04:37.500Z,1000.61
2019-03-18T06:05:37.464Z,1000.65
2019-03-18T06:06:37.411Z,1000.64
2019-03-18T06:07:37.493Z,1000.65
2019-03-18T06:08:37.437Z,1000.69
2019-03-18T06:09:37.414Z,1000.72
2019-03-18T06:10:37.419Z,1000.70
2019-03-18T06:11:37.424Z,1000.71
2019-03-18T06:12:37.387Z,1000.69
2019-03-18T06:13:37.422Z,1000.70
2019-03-18T06:14:37.470Z,1000.75
2019-03-18T06:15:37.505Z,1000.75
2019-03-18T06:16:37.411Z,1000.74
2019-03-18T06:17:37.510Z,1000.81
2019-03-18T06:18:37.412Z,1000.79
2019-03-18T06:19:37.556Z,1000.86
2019-03-18T06:20:37.453Z,1000.91
2019-03-18T06:21:37.448Z,1000.90
2019-03-18T06:22:37.441Z,1000.91
2019-03-18T06:23:37.444Z,1000.88
2019-03-18T06:24:37.522Z,1000.90
2019-03-18T06:25:37.518Z,1000.91
2019-03-18T06:26:37.520Z,1000.92
2019-03-18T06:27:37.442Z,1001.00
2019-03-18T06:28:37.520Z,1000.99
2019-03-18T06:29:37.526Z,1001.01
2019-03-18T06:30:37.458Z,1001.02
2019-03-18T06:31:37.537Z,1001.01
2019-03-18T06:32:37.528Z,1001.03
2019-03-18T06:33:37.538Z,1001.10
2019-03-18T06:34:37.530Z,1001.05
2019-03-18T06:35:37.535Z,1001.11
2019-03-18T06:36:37.541Z,1001.14
2019-03-18T06:37:37.471Z,1001.11
2019-03-18T06:38:37.532Z,1001.17
2019-03-18T06:39:37.448Z,1001.17
2019-03-18T06:40:37.440Z,1001.17
2019-03-18T06:41:37.453Z,1001.22
2019-03-18T06:42:37.503Z,1001.21
2019-03-18T06:43:37.491Z,1001.26
2019-03-18T06:44:37.529Z,1001.20
2019-03-18T06:45:37.527Z,1001.29
2019-03-18T06:46:37.444Z,1001.30
2019-03-18T06:47:37.535Z,1001.34
2019-03-18T06:48:37.480Z,1001.30
2019-03-18T06:49:37.501Z,1001.30
2019-03-18T06:50:37.472Z,1001.39
2019-03-18T06:51:37.543Z,1001.42
2019-03-18T06:52:37.435Z,1001.37
2019-03-18T06:53:40.090Z,1001.42
2019-03-18T06:54:37.545Z,1001.42
2019-03-18T06:55:37.550Z,1001.41
2019-03-18T06:56:37.547Z,1001.38
2019-03-18T06:57:37.479Z,1001.37
2019-03-18T06:58:37.496Z,1001.43
2019-03-18T06:59:37.548Z,1001.42
2019-03-18T07:00:37.482Z,1001.45
2019-03-18T07:01:37.486Z,1001.49
2019-03-18T07:02:37.564Z,1001.49
2019-03-18T07:03:37.486Z,1001.51
2019-03-18T07:04:37.560Z,1001.47
2019-03-18T07:05:37.485Z,1001.52
2019-03-18T07:06:37.551Z,1001.52
2019-03-18T07:07:37.484Z,1001.54
2019-03-18T07:08:37.484Z,1001.55
2019-03-18T07:09:37.490Z,1001.54
2019-03-18T07:10:37.549Z,1001.66
2019-03-18T07:11:37.475Z,1001.62
2019-03-18T07:12:37.462Z,1001.71
2019-03-18T07:13:37.483Z,1001.73
2019-03-18T07:14:37.487Z,1001.72
2019-03-18T07:15:37.559Z,1001.76
2019-03-18T07:16:37.482Z,1001.77
2019-03-18T07:17:37.554Z,1001.76
2019-03-18T07:18:37.550Z,1001.78
2019-03-18T07:19:37.479Z,1001.83
2019-03-18T07:20:37.573Z,1001.84
2019-03-18T07:21:37.501Z,1001.88
2019-03-18T07:22:37.496Z,1001.85
2019-03-18T07:23:37.567Z,1001.91
2019-03-18T07:24:37.498Z,1001.87
2019-03-18T07:25:37.508Z,1001.91
2019-03-18T07:26:37.498Z,1001.98
2019-03-18T07:27:37.581Z,1001.97
2019-03-18T07:28:37.566Z,1001.96
2019-03-18T07:29:37.591Z,1002.02
2019-03-18T07:30:37.503Z,1001.97
2019-03-18T07:31:37.585Z,1002.02
2019-03-18T07:32:37.503Z,1002.04
2019-03-18T07:33:37.504Z,1001.99
2019-03-18T07:34:37.512Z,1001.95
2019-03-18T07:35:37.513Z,1001.93
2019-03-18T07:36:37.625Z,1001.99
2019-03-18T07:37:37.550Z,1002.00
2019-03-18T07:38:37.578Z,1001.98
2019-03-18T07:39:37.574Z,1001.99
2019-03-18T07:40:37.654Z,1002.04
2019-03-18T07:41:37.579Z,1001.97
2019-03-18T07:42:37.586Z,1001.99
2019-03-18T07:43:37.583Z,1001.97
2019-03-18T07:44:37.512Z,1002.02
2019-03-18T07:45:37.580Z,1002.03
2019-03-18T07:46:37.515Z,1002.04
2019-03-18T07:47:37.515Z,1002.03
2019-03-18T07:48:37.511Z,1001.99
2019-03-18T07:49:37.647Z,1002.01
2019-03-18T07:50:37.461Z,1001.97
2019-03-18T07:51:37.486Z,1002.00
2019-03-18T07:52:37.486Z,1001.97
2019-03-18T07:53:37.476Z,1002.03
2019-03-18T07:54:37.576Z,1002.06
2019-03-18T07:55:37.565Z,1002.05
2019-03-18T07:56:37.570Z,1002.08
2019-03-18T07:57:37.460Z,1002.10
2019-03-18T07:58:37.581Z,1002.10
2019-03-18T07:59:37.493Z,1002.08
2019-03-18T08:00:37.628Z,1002.14
2019-03-18T08:01:37.594Z,1002.10
2019-03-18T08:02:37.539Z,1002.16
2019-03-18T08:03:37.537Z,1002.20
2019-03-18T08:04:38.238Z,1002.15
2019-03-18T08:05:37.525Z,1002.27
2019-03-18T08:06:37.596Z,1002.24
2019-03-18T08:07:37.596Z,1002.24
2019-03-18T08:08:37.673Z,1002.31
2019-03-18T08:09:37.605Z,1002.30
2019-03-18T08:10:37.595Z,1002.33
2019-03-18T08:11:37.532Z,1002.34
2019-03-18T08:12:37.597Z,1002.33
2019-03-18T08:13:37.531Z,1002.30
2019-03-18T08:14:37.532Z,1002.36
2019-03-18T08:15:37.602Z,1002.35
2019-03-18T08:16:37.562Z,1002.43
2019-03-18T08:17:37.536Z,1002.46
2019-03-18T08:18:43.321Z,1002.34
2019-03-18T08:19:37.534Z,1002.37
2019-03-18T08:20:37.586Z,1002.41
2019-03-18T08:21:37.582Z,1002.46
2019-03-18T08:22:37.507Z,1002.49
2019-03-18T08:23:37.599Z,1002.45
2019-03-18T08:24:37.597Z,1002.58
2019-03-18T08:25:37.500Z,1002.57
2019-03-18T08:26:37.479Z,1002.59
2019-03-18T08:27:37.653Z,1002.71
2019-03-18T08:28:37.497Z,1002.66
2019-03-18T08:29:37.608Z,1002.66
2019-03-18T08:30:37.616Z,1002.65
2019-03-18T08:31:37.714Z,1002.73
2019-03-18T08:32:37.617Z,1002.68
2019-03-18T08:33:37.639Z,1002.66
2019-03-18T08:34:37.560Z,1002.64
2019-03-18T08:35:37.547Z,1002.63
2019-03-18T08:36:37.547Z,1002.82
2019-03-18T08:37:37.619Z,1002.68
2019-03-18T08:38:37.628Z,1002.82
2019-03-18T08:39:37.615Z,1002.77
2019-03-18T08:40:37.622Z,1002.83
2019-03-18T08:41:37.553Z,1002.77
2019-03-18T08:42:37.623Z,1002.73
2019-03-18T08:43:37.625Z,1002.68
2019-03-18T08:44:40.361Z,1002.77
2019-03-18T08:45:37.553Z,1002.72
2019-03-18T08:46:37.553Z,1002.72
2019-03-18T08:47:37.626Z,1002.67
2019-03-18T08:48:37.583Z,1002.62
2019-03-18T08:49:37.570Z,1002.72
2019-03-18T08:50:37.532Z,1002.74
2019-03-18T08:51:37.580Z,1002.78
2019-03-18T08:52:37.633Z,1002.90
2019-03-18T08:53:37.485Z,1002.82
2019-03-18T08:54:37.550Z,1002.88
2019-03-18T08:55:37.492Z,1002.85
2019-03-18T08:56:37.487Z,1002.85
2019-03-18T08:57:37.587Z,1002.88
2019-03-18T08:58:37.583Z,1002.88
2019-03-18T08:59:37.512Z,1002.94
2019-03-18T09:00:37.603Z,1002.96
2019-03-18T09:01:37.567Z,1002.98
2019-03-18T09:02:37.640Z,1002.98
2019-03-18T09:03:37.638Z,1003.01
2019-03-18T09:04:37.533Z,1003.06
2019-03-18T09:05:37.588Z,1003.02
2019-03-18T09:06:37.575Z,1003.03
2019-03-18T09:07:37.567Z,1002.94
2019-03-18T09:08:37.641Z,1003.03
2019-03-18T09:09:37.638Z,1003.06
2019-03-18T09:10:37.559Z,1003.09
2019-03-18T09:11:37.638Z,1003.08
2019-03-18T09:12:37.633Z,1003.04
2019-03-18T09:13:37.561Z,1003.06
2019-03-18T09:14:37.549Z,1003.12
2019-03-18T09:15:37.637Z,1003.14
2019-03-18T09:16:37.576Z,1003.20
2019-03-18T09:17:37.567Z,1003.22
2019-03-18T09:18:37.569Z,1003.25
2019-03-18T09:19:37.565Z,1003.31
2019-03-18T09:20:37.544Z,1003.23
2019-03-18T09:21:37.647Z,1003.25
2019-03-18T09:22:37.656Z,1003.23
2019-03-18T09:23:37.649Z,1003.23
2019-03-18T09:24:37.651Z,1003.22
2019-03-18T09:25:37.585Z,1003.24
2019-03-18T09:26:37.583Z,1003.20
2019-03-18T09:27:37.659Z,1003.22
2019-03-18T09:28:37.677Z,1003.24
2019-03-18T09:29:37.584Z,1003.28
2019-03-18T09:30:37.687Z,1003.27
2019-03-18T09:31:37.657Z,1003.29
2019-03-18T09:32:37.598Z,1003.29
2019-03-18T09:33:37.595Z,1003.38
2019-03-18T09:34:37.664Z,1003.30
2019-03-18T09:35:37.677Z,1003.28
2019-03-18T09:36:37.667Z,1003.30
2019-03-18T09:37:37.657Z,1003.37
2019-03-18T09:38:37.597Z,1003.41
2019-03-18T09:39:37.662Z,1003.44
2019-03-18T09:40:37.671Z,1003.34
2019-03-18T09:41:37.556Z,1003.43
2019-03-18T09:42:37.626Z,1003.40
2019-03-18T09:43:37.664Z,1003.37
2019-03-18T09:44:37.611Z,1003.43
2019-03-18T09:45:37.731Z,1003.45
2019-03-18T09:46:37.600Z,1003.38
2019-03-18T09:47:37.598Z,1003.50
2019-03-18T09:48:37.599Z,1003.43
2019-03-18T09:49:37.676Z,1003.39
2019-03-18T09:50:37.689Z,1003.40
2019-03-18T09:51:37.559Z,1003.36
2019-03-18T09:52:37.626Z,1003.48
2019-03-18T09:53:37.811Z,1003.43
2019-03-18T09:54:37.665Z,1003.48
2019-03-18T09:55:37.616Z,1003.51
2019-03-18T09:56:37.615Z,1003.45
2019-03-18T09:57:37.577Z,1003.46
2019-03-18T09:58:37.635Z,1003.49
2019-03-18T09:59:37.596Z,1003.54
2019-03-18T10:00:37.621Z,1003.50
2019-03-18T10:01:37.676Z,1003.44
2019-03-18T10:02:37.689Z,1003.51
2019-03-18T10:03:37.692Z,1003.54
2019-03-18T10:04:37.672Z,1003.57
2019-03-18T10:05:37.621Z,1003.57
2019-03-18T10:06:37.681Z,1003.62
2019-03-18T10:07:37.614Z,1003.60
2019-03-18T10:08:37.619Z,1003.59
2019-03-18T10:09:37.682Z,1003.54
2019-03-18T10:10:37.501Z,1003.62
2019-03-18T10:11:37.556Z,1003.65
2019-03-18T10:12:37.531Z,1003.65
2019-03-18T10:13:37.531Z,1003.61
2019-03-18T10:14:37.624Z,1003.68
2019-03-18T10:15:37.557Z,1003.60
2019-03-18T10:16:37.574Z,1003.52
2019-03-18T10:17:37.531Z,1003.51
2019-03-18T10:18:37.629Z,1003.62
2019-03-18T10:19:37.506Z,1003.57
2019-03-18T10:20:37.608Z,1003.60
2019-03-18T10:21:37.575Z,1003.62
2019-03-18T10:22:37.613Z,1003.62
2019-03-18T10:23:37.684Z,1003.70
2019-03-18T10:24:37.566Z,1003.69
2019-03-18T10:25:37.625Z,1003.76
2019-03-18T10:26:37.650Z,1003.74
2019-03-18T10:27:38.001Z,1003.74
2019-03-18T10:28:37.614Z,1003.69
2019-03-18T10:29:37.662Z,1003.77
2019-03-18T10:30:37.633Z,1003.74
2019-03-18T10:31:37.703Z,1003.75
2019-03-18T10:32:37.634Z,1003.78
2019-03-18T10:33:37.704Z,1003.76
2019-03-18T10:34:37.710Z,1003.74
2019-03-18T10:35:37.733Z,1003.79
2019-03-18T10:36:37.705Z,1003.74
2019-03-18T10:37:37.710Z,1003.79
2019-03-18T10:38:37.713Z,1003.84
2019-03-18T10:39:37.707Z,1003.82
2019-03-18T10:40:37.680Z,1003.83
2019-03-18T10:41:37.688Z,1003.85
2019-03-18T10:42:37.682Z,1003.80
2019-03-18T10:43:37.648Z,1003.84
2019-03-18T10:44:37.611Z,1003.81
2019-03-18T10:45:37.645Z,1003.85
2019-03-18T10:46:37.690Z,1003.85
2019-03-18T10:47:37.610Z,1003.80
2019-03-18T10:48:37.660Z,1003.80
2019-03-18T10:49:46.204Z,1003.75
2019-03-18T10:50:37.727Z,1003.88
2019-03-18T10:51:37.715Z,1003.88
2019-03-18T10:52:37.714Z,1003.81
2019-03-18T10:53:37.760Z,1003.86
2019-03-18T10:54:37.676Z,1003.87
2019-03-18T10:55:37.721Z,1003.93
2019-03-18T10:56:37.650Z,1003.86
2019-03-18T10:57:37.720Z,1003.84
2019-03-18T10:58:37.618Z,1003.89
2019-03-18T10:59:37.664Z,1003.96
2019-03-18T11:00:37.704Z,1004.01
2019-03-18T11:01:37.711Z,1004.02
2019-03-18T11:02:37.720Z,1003.98
2019-03-18T11:03:38.959Z,1004.02
2019-03-18T11:04:37.669Z,1004.05
2019-03-18T11:05:37.642Z,1004.03
2019-03-18T11:06:37.720Z,1004.08
2019-03-18T11:07:37.645Z,1004.01
2019-03-18T11:08:37.627Z,1004.05
2019-03-18T11:09:37.713Z,1004.16
2019-03-18T11:10:37.741Z,1004.14
2019-03-18T11:11:37.701Z,1004.09
2019-03-18T11:12:37.727Z,1004.11
2019-03-18T11:13:37.728Z,1004.15
2019-03-18T11:14:37.625Z,1004.08
2019-03-18T11:15:37.743Z,1004.16
2019-03-18T11:16:37.669Z,1004.13
2019-03-18T11:17:37.662Z,1004.14
2019-03-18T11:18:37.733Z,1004.15
2019-03-18T11:19:37.662Z,1004.17
2019-03-18T11:20:37.634Z,1004.20
2019-03-18T11:21:37.676Z,1004.14
2019-03-18T11:22:37.630Z,1004.23
2019-03-18T11:23:37.642Z,1004.19
2019-03-18T11:24:37.629Z,1004.18
2019-03-18T11:25:37.670Z,1004.18
2019-03-18T11:26:37.685Z,1004.23
2019-03-18T11:27:37.640Z,1004.23
2019-03-18T11:28:37.716Z,1004.22
2019-03-18T11:29:37.634Z,1004.17
2019-03-18T11:30:37.739Z,1004.28
2019-03-18T11:31:37.739Z,1004.23
2019-03-18T11:32:37.703Z,1004.38
2019-03-18T11:33:37.783Z,1004.21
2019-03-18T11:34:37.681Z,1004.25
2019-03-18T11:35:37.765Z,1004.24
2019-03-18T11:36:37.745Z,1004.19
2019-03-18T11:37:37.751Z,1004.22
2019-03-18T11:38:37.678Z,1004.17
2019-03-18T11:39:37.748Z,1004.22
2019-03-18T11:40:37.743Z,1004.23
2019-03-18T11:41:38.479Z,1004.25
2019-03-18T11:42:37.747Z,1004.21
2019-03-18T11:43:37.688Z,1004.22
2019-03-18T11:44:37.684Z,1004.21
2019-03-18T11:45:37.749Z,1004.29
2019-03-18T11:46:40.456Z,1004.22
2019-03-18T11:47:37.682Z,1004.25
2019-03-18T11:48:37.760Z,1004.39
2019-03-18T11:49:39.934Z,1004.42
2019-03-18T11:50:37.607Z,1004.36
2019-03-18T11:51:37.613Z,1004.44
2019-03-18T11:52:37.619Z,1004.53
2019-03-18T11:53:37.704Z,1004.45
2019-03-18T11:54:37.603Z,1004.39
2019-03-18T11:55:37.677Z,1004.36
2019-03-18T11:56:37.636Z,1004.30
2019-03-18T11:57:37.676Z,1004.34
2019-03-18T11:58:37.710Z,1004.36
2019-03-18T11:59:37.713Z,1004.26
2019-03-18T12:00:37.628Z,1004.24
2019-03-18T12:01:37.737Z,1004.24
2019-03-18T12:02:37.667Z,1004.20
2019-03-18T12:03:37.671Z,1004.15
2019-03-18T12:04:37.698Z,1004.19
2019-03-18T12:05:37.660Z,1004.17
2019-03-18T12:06:37.706Z,1004.22
2019-03-18T12:07:37.707Z,1004.19
2019-03-18T12:08:37.723Z,1004.29
2019-03-18T12:09:37.664Z,1004.15
2019-03-18T12:10:37.854Z,1004.22
2019-03-18T12:11:37.704Z,1004.22
2019-03-18T12:12:37.712Z,1004.24
2019-03-18T12:13:37.781Z,1004.31
2019-03-18T12:14:37.767Z,1004.23
2019-03-18T12:15:37.707Z,1004.23
2019-03-18T12:16:37.780Z,1004.13